This is the latest recevied weather packets stored in our database for station/object N9CQL. If no packets are shown the sender has not sent any weather packets the latest 10 day(s).
| Time | Temp. | Humidity | Pressure | Rain* | Wind** | Luminosity | Snow |
|---|---|---|---|---|---|---|---|
| 1777666210 | 8.33° C | 68% | 1016.4 hPa | 0 mm | - | 126 W/m² | - |
| 1777665907 | 8.33° C | 69% | 1016.4 hPa | 0 mm | - | 108 W/m² | - |
| 1777665605 | 8.33° C | 68% | 1016.3 hPa | 0 mm | - | 113 W/m² | - |
| 1777665301 | 8.33° C | 69% | 1016.5 hPa | 0 mm | - | 105 W/m² | - |
| 1777664997 | 8.33° C | 70% | 1016.3 hPa | 0 mm | - | 96 W/m² | - |
| 1777664693 | 8.33° C | 70% | 1016.5 hPa | 0 mm | - | 128 W/m² | - |
| 1777664389 | 8.33° C | 69% | 1016.3 hPa | 0 mm | - | 132 W/m² | - |
| 1777664087 | 7.78° C | 72% | 1016.3 hPa | 0 mm | - | 111 W/m² | - |
| 1777663784 | 7.78° C | 72% | 1016.4 hPa | 0 mm | - | 86 W/m² | - |
| 1777663482 | 7.78° C | 72% | 1016.3 hPa | 0 mm | - | 81 W/m² | - |
| 1777663179 | 7.78° C | 72% | 1016.4 hPa | 0 mm | - | 83 W/m² | - |
| 1777662876 | 8.33° C | 69% | 1016.5 hPa | 0 mm | - | 62 W/m² | - |
| 1777662573 | 8.89° C | 69% | 1016.2 hPa | 0 mm | - | 58 W/m² | - |
| 1777662269 | 8.89° C | 68% | 1016.2 hPa | 0 mm | - | 69 W/m² | - |
| 1777661963 | 9.44° C | 68% | 1016 hPa | 0 mm | - | 72 W/m² | - |
| 1777661660 | 9.44° C | 68% | 1016.1 hPa | 0 mm | - | 119 W/m² | - |
| 1777661356 | 10° C | 67% | 1016.1 hPa | 0 mm | - | 163 W/m² | - |
| 1777661052 | 10° C | 67% | 1015.9 hPa | 0 mm | - | 232 W/m² | - |
| 1777660747 | 10° C | 67% | 1015.9 hPa | 0 mm | - | 277 W/m² | - |
| 1777660445 | 10° C | 67% | 1015.8 hPa | 0 mm | - | 252 W/m² | - |
| 1777660141 | 10° C | 67% | 1015.7 hPa | 0 mm | - | 217 W/m² | - |
| 1777659838 | 10° C | 69% | 1015.6 hPa | 0 mm | - | 248 W/m² | - |
| 1777659535 | 9.44° C | 69% | 1015.7 hPa | 0 mm | - | 141 W/m² | - |
| 1777659232 | 10° C | 69% | 1015.7 hPa | 0 mm | - | 105 W/m² | - |
| 1777658929 | 10.56° C | 67% | 1015.6 hPa | 0 mm | - | 108 W/m² | - |
* Rain latest hour (hover to see other rain measurements)
** Current wind speed in m/s (hover to see current wind gust speed)